createdAt,value
2019-05-20T00:00:27.803Z,2.30
2019-05-20T00:02:57.274Z,2.30
2019-05-20T00:05:26.829Z,2.35
2019-05-20T00:07:56.401Z,2.08
2019-05-20T00:10:29.058Z,2.08
2019-05-20T00:12:58.554Z,2.05
2019-05-20T00:15:29.103Z,2.37
2019-05-20T00:17:58.567Z,2.25
2019-05-20T00:20:29.591Z,2.10
2019-05-20T00:22:59.275Z,2.08
2019-05-20T00:25:28.712Z,2.30
2019-05-20T00:27:58.320Z,2.00
2019-05-20T00:30:27.927Z,1.77
2019-05-20T00:32:57.507Z,1.92
2019-05-20T00:35:27.048Z,2.00
2019-05-20T00:37:56.559Z,1.98
2019-05-20T00:40:26.085Z,1.85
2019-05-20T00:42:55.685Z,2.00
2019-05-20T00:45:25.970Z,2.00
2019-05-20T00:47:55.478Z,2.05
2019-05-20T00:50:25.087Z,2.08
2019-05-20T00:52:54.665Z,2.20
2019-05-20T00:55:30.283Z,2.22
2019-05-20T00:57:59.888Z,2.20
2019-05-20T01:00:29.675Z,2.08
2019-05-20T01:02:59.148Z,2.10
2019-05-20T01:05:28.652Z,2.20
2019-05-20T01:07:58.109Z,2.08
2019-05-20T01:10:27.653Z,2.20
2019-05-20T01:12:57.176Z,2.10
2019-05-20T01:15:27.475Z,2.22
2019-05-20T01:17:57.052Z,2.08
2019-05-20T01:20:26.657Z,2.17
2019-05-20T01:22:56.507Z,1.90
2019-05-20T01:25:26.050Z,2.00
2019-05-20T01:27:55.554Z,1.90
2019-05-20T01:30:27.175Z,1.98
2019-05-20T01:33:04.993Z,2.10
2019-05-20T01:35:27.779Z,1.75
2019-05-20T01:37:57.315Z,2.20
2019-05-20T01:40:26.935Z,1.90
2019-05-20T01:42:56.522Z,2.10
2019-05-20T01:45:27.318Z,2.10
2019-05-20T01:47:56.816Z,2.47
2019-05-20T01:50:26.487Z,2.20
2019-05-20T01:52:56.025Z,2.08
2019-05-20T01:55:25.629Z,2.27
2019-05-20T01:57:55.279Z,2.20
2019-05-20T02:00:25.243Z,1.90
2019-05-20T02:02:54.825Z,1.82
2019-05-20T02:05:24.432Z,2.37
2019-05-20T02:07:54.009Z,1.92
2019-05-20T02:10:23.555Z,2.02
2019-05-20T02:12:53.131Z,1.60
2019-05-20T02:15:27.878Z,2.00
2019-05-20T02:17:57.411Z,1.95
2019-05-20T02:20:26.930Z,2.00
2019-05-20T02:22:58.086Z,1.85
2019-05-20T02:25:27.515Z,1.70
2019-05-20T02:27:57.056Z,1.95
2019-05-20T02:30:27.852Z,1.80
2019-05-20T02:32:57.356Z,1.90
2019-05-20T02:35:26.889Z,2.00
2019-05-20T02:37:56.360Z,1.82
2019-05-20T02:40:25.896Z,1.60
2019-05-20T02:42:55.569Z,1.92
2019-05-20T02:45:26.242Z,1.72
2019-05-20T02:47:55.779Z,1.57
2019-05-20T02:50:25.346Z,1.80
2019-05-20T02:52:54.884Z,1.92
2019-05-20T02:55:24.483Z,1.70
2019-05-20T02:57:54.124Z,1.60
2019-05-20T03:00:25.675Z,1.92
2019-05-20T03:02:55.231Z,1.70
2019-05-20T03:05:24.797Z,1.55
2019-05-20T03:07:54.327Z,1.52
2019-05-20T03:10:23.857Z,1.62
2019-05-20T03:12:53.472Z,1.50
2019-05-20T03:15:23.671Z,1.60
2019-05-20T03:17:53.250Z,1.70
2019-05-20T03:20:22.706Z,1.75
2019-05-20T03:22:52.283Z,1.80
2019-05-20T03:25:21.821Z,1.67
2019-05-20T03:27:51.524Z,1.65
2019-05-20T03:30:22.607Z,1.47
2019-05-20T03:32:52.889Z,1.70
2019-05-20T03:35:22.412Z,1.70
2019-05-20T03:37:51.948Z,1.90
2019-05-20T03:40:21.792Z,1.72
2019-05-20T03:42:51.343Z,1.50
2019-05-20T03:45:22.302Z,1.50
2019-05-20T03:47:52.551Z,1.70
2019-05-20T03:50:22.052Z,1.67
2019-05-20T03:52:51.666Z,1.80
2019-05-20T03:55:21.263Z,2.08
2019-05-20T03:57:50.767Z,1.80
2019-05-20T04:00:23.951Z,1.85
2019-05-20T04:02:53.461Z,1.90
2019-05-20T04:05:22.923Z,1.70
2019-05-20T04:07:52.437Z,1.62
2019-05-20T04:10:21.904Z,1.80
2019-05-20T04:12:51.340Z,1.65
2019-05-20T04:15:21.670Z,1.75
2019-05-20T04:17:51.175Z,1.60
2019-05-20T04:20:20.670Z,1.77
2019-05-20T04:22:50.354Z,1.90
2019-05-20T04:25:19.929Z,1.90
2019-05-20T04:27:49.532Z,2.08
2019-05-20T04:30:19.820Z,2.10
2019-05-20T04:32:49.283Z,2.15
2019-05-20T04:35:22.917Z,1.90
2019-05-20T04:37:50.017Z,1.90
2019-05-20T04:40:19.553Z,2.50
2019-05-20T04:42:49.052Z,2.00
2019-05-20T04:45:18.658Z,2.20
2019-05-20T04:47:48.231Z,2.30
2019-05-20T04:50:18.005Z,2.17
2019-05-20T04:52:47.786Z,2.15
2019-05-20T04:55:17.339Z,1.85
2019-05-20T04:57:46.762Z,2.50
2019-05-20T05:00:19.938Z,2.20
2019-05-20T05:02:49.510Z,2.05
2019-05-20T05:05:35.354Z,2.27
2019-05-20T05:07:51.883Z,2.17
2019-05-20T05:10:21.463Z,1.90
2019-05-20T05:12:50.996Z,2.22
2019-05-20T05:15:21.864Z,1.85
2019-05-20T05:17:51.363Z,1.90
2019-05-20T05:20:20.964Z,2.27
2019-05-20T05:22:50.548Z,2.10
2019-05-20T05:25:20.153Z,1.90
2019-05-20T05:27:49.730Z,2.10
2019-05-20T05:30:20.536Z,1.82
2019-05-20T05:32:50.121Z,1.90
2019-05-20T05:35:19.932Z,2.45
2019-05-20T05:37:49.563Z,1.82
2019-05-20T05:40:19.332Z,2.50
2019-05-20T05:42:48.835Z,2.42
2019-05-20T05:45:21.707Z,2.80
2019-05-20T05:47:52.371Z,2.60
2019-05-20T05:50:22.012Z,2.35
2019-05-20T05:52:51.575Z,3.00
2019-05-20T05:55:21.063Z,3.40
2019-05-20T05:57:50.617Z,3.30
2019-05-20T06:00:21.609Z,4.05
2019-05-20T06:02:51.247Z,4.40
2019-05-20T06:05:20.804Z,4.40
2019-05-20T06:07:50.391Z,4.80
2019-05-20T06:10:20.091Z,4.62
2019-05-20T06:12:49.672Z,4.42
2019-05-20T06:15:19.602Z,4.33
2019-05-20T06:17:49.373Z,5.70
2019-05-20T06:20:19.083Z,5.70
2019-05-20T06:22:48.614Z,6.40
2019-05-20T06:25:19.473Z,7.05
2019-05-20T06:27:49.111Z,7.03
2019-05-20T06:30:20.064Z,9.00
2019-05-20T06:32:49.691Z,9.50
2019-05-20T06:35:20.750Z,9.48
2019-05-20T06:37:52.199Z,9.55
2019-05-20T06:40:21.815Z,10.20
2019-05-20T06:42:51.424Z,10.50
2019-05-20T06:45:21.387Z,9.80
2019-05-20T06:47:50.979Z,11.43
2019-05-20T06:50:20.617Z,12.43
2019-05-20T06:52:51.282Z,11.53
2019-05-20T06:55:21.058Z,7.95
2019-05-20T06:57:50.612Z,10.95
2019-05-20T07:00:35.369Z,11.68
2019-05-20T07:03:06.415Z,11.30
2019-05-20T07:05:36.049Z,11.93
2019-05-20T07:08:05.942Z,12.43
2019-05-20T07:10:35.620Z,12.55
2019-05-20T07:13:05.351Z,14.85
2019-05-20T07:15:34.960Z,15.18
2019-05-20T07:18:04.694Z,15.48
2019-05-20T07:20:34.417Z,15.53
2019-05-20T07:23:04.081Z,16.15
2019-05-20T07:25:33.809Z,17.77
2019-05-20T07:28:03.493Z,19.20
2019-05-20T07:30:33.224Z,20.00
2019-05-20T07:33:02.840Z,21.25
2019-05-20T07:35:32.563Z,21.60
2019-05-20T07:38:02.343Z,20.17
2019-05-20T07:40:33.396Z,21.97
2019-05-20T07:43:03.294Z,23.20
2019-05-20T07:45:34.932Z,21.75
2019-05-20T07:48:05.416Z,21.07
2019-05-20T07:50:38.037Z,21.50
2019-05-20T07:53:08.816Z,22.15
2019-05-20T07:55:41.335Z,21.77
2019-05-20T07:58:13.733Z,21.00
2019-05-20T08:00:43.382Z,22.42
2019-05-20T08:03:13.073Z,22.98
2019-05-20T08:05:42.614Z,24.65
2019-05-20T08:08:13.200Z,24.95
2019-05-20T08:10:42.747Z,24.90
2019-05-20T08:13:12.400Z,25.37
2019-05-20T08:15:41.930Z,25.12
2019-05-20T08:18:11.545Z,24.98
2019-05-20T08:20:41.125Z,24.90
2019-05-20T08:23:10.742Z,24.30
2019-05-20T08:25:40.427Z,24.82
2019-05-20T08:28:10.039Z,24.02
2019-05-20T08:30:39.884Z,24.27
2019-05-20T08:33:09.799Z,24.77
2019-05-20T08:35:39.603Z,24.05
2019-05-20T08:38:10.109Z,24.87
2019-05-20T08:40:42.996Z,24.25
2019-05-20T08:43:13.528Z,24.30
2019-05-20T08:45:43.428Z,24.90
2019-05-20T08:48:13.212Z,24.55
2019-05-20T08:50:43.705Z,25.17
2019-05-20T08:53:13.578Z,25.10
2019-05-20T08:55:44.113Z,26.07
2019-05-20T08:58:13.985Z,25.32
2019-05-20T09:00:43.777Z,23.92
2019-05-20T09:03:14.187Z,25.10
2019-05-20T09:05:44.789Z,24.45
2019-05-20T09:08:15.374Z,22.73
2019-05-20T09:10:45.279Z,24.32
2019-05-20T09:13:15.102Z,23.98
2019-05-20T09:15:46.107Z,22.93
2019-05-20T09:18:16.004Z,21.17
2019-05-20T09:20:45.869Z,26.97
2019-05-20T09:23:15.666Z,27.35
2019-05-20T09:25:45.490Z,29.85
2019-05-20T09:28:15.310Z,30.72
2019-05-20T09:30:45.293Z,32.38
2019-05-20T09:33:15.107Z,35.08
2019-05-20T09:35:45.148Z,37.67
2019-05-20T09:38:21.093Z,92.72
2019-05-20T09:40:48.872Z,92.53
2019-05-20T09:43:19.818Z,42.50
2019-05-20T09:46:05.670Z,46.80
2019-05-20T09:48:24.890Z,40.78
2019-05-20T09:50:53.228Z,32.17
2019-05-20T09:53:23.998Z,32.17
2019-05-20T09:55:53.871Z,42.30
2019-05-20T09:58:24.264Z,33.45
2019-05-20T10:00:54.190Z,29.55
2019-05-20T10:03:24.003Z,28.67
2019-05-20T10:05:53.823Z,26.62
2019-05-20T10:08:36.974Z,27.05
2019-05-20T10:10:59.384Z,26.77
2019-05-20T10:13:26.263Z,28.00
2019-05-20T10:15:55.838Z,26.50
2019-05-20T10:18:36.746Z,36.30
2019-05-20T10:20:56.713Z,28.38
2019-05-20T10:23:26.451Z,26.82
2019-05-20T10:25:56.024Z,28.62
2019-05-20T10:28:26.306Z,29.95
2019-05-20T10:30:56.153Z,27.37
2019-05-20T10:33:26.542Z,28.15
2019-05-20T10:35:56.307Z,27.48
2019-05-20T10:38:26.833Z,27.67
2019-05-20T10:40:56.528Z,27.30
2019-05-20T10:43:26.200Z,27.27
2019-05-20T10:45:56.694Z,27.52
2019-05-20T10:48:26.643Z,28.05
2019-05-20T10:50:56.152Z,27.52
2019-05-20T10:53:28.296Z,26.00
2019-05-20T10:55:57.595Z,26.93
2019-05-20T10:58:28.478Z,27.80
2019-05-20T11:01:03.439Z,25.77
2019-05-20T11:03:29.547Z,26.62
2019-05-20T11:05:59.050Z,26.87
2019-05-20T11:08:28.746Z,27.65
2019-05-20T11:10:58.390Z,28.32
2019-05-20T11:13:29.173Z,28.23
2019-05-20T11:15:58.730Z,28.62
2019-05-20T11:18:28.323Z,29.70
2019-05-20T11:20:57.927Z,27.95
2019-05-20T11:23:27.697Z,28.52
2019-05-20T11:25:57.372Z,28.40
2019-05-20T11:28:27.087Z,29.10
2019-05-20T11:30:56.691Z,28.70
2019-05-20T11:33:26.344Z,28.85
2019-05-20T11:35:55.987Z,31.30
2019-05-20T11:38:25.663Z,28.10
2019-05-20T11:40:55.193Z,31.80
2019-05-20T11:43:24.930Z,34.10
2019-05-20T11:45:54.514Z,40.45
2019-05-20T11:48:24.166Z,33.25
2019-05-20T11:50:53.882Z,32.58
2019-05-20T11:53:23.534Z,31.20
2019-05-20T11:55:53.048Z,30.23
2019-05-20T11:58:22.519Z,30.82
2019-05-20T12:00:52.105Z,30.97
2019-05-20T12:03:21.615Z,29.82
2019-05-20T12:05:51.201Z,29.27
2019-05-20T12:08:20.747Z,30.57
2019-05-20T12:10:50.335Z,29.60
2019-05-20T12:13:19.971Z,29.27
2019-05-20T12:15:49.731Z,29.00
2019-05-20T12:18:19.283Z,29.82
2019-05-20T12:20:48.751Z,28.83
2019-05-20T12:23:18.309Z,29.70
2019-05-20T12:25:47.805Z,29.52
2019-05-20T12:28:17.402Z,30.27
2019-05-20T12:30:46.867Z,29.98
2019-05-20T12:33:18.998Z,32.63
2019-05-20T12:35:47.551Z,33.80
2019-05-20T12:38:17.102Z,34.75
2019-05-20T12:40:46.710Z,31.95
2019-05-20T12:43:16.207Z,30.50
2019-05-20T12:45:45.785Z,30.32
2019-05-20T12:48:15.323Z,29.48
2019-05-20T12:50:45.321Z,28.85
2019-05-20T12:53:15.129Z,24.52
2019-05-20T12:55:45.781Z,21.93
2019-05-20T12:58:15.434Z,19.32
2019-05-20T13:00:44.909Z,18.62
2019-05-20T13:03:15.745Z,17.35
2019-05-20T13:05:45.226Z,16.52
2019-05-20T13:08:15.688Z,15.93
2019-05-20T13:10:45.422Z,15.18
2019-05-20T13:13:14.943Z,14.55
2019-05-20T13:15:45.038Z,14.00
2019-05-20T13:18:14.639Z,13.68
2019-05-20T13:20:44.259Z,13.98
2019-05-20T13:23:15.731Z,15.90
2019-05-20T13:25:45.231Z,16.32
2019-05-20T13:28:14.843Z,17.07
2019-05-20T13:30:44.625Z,17.55
2019-05-20T13:33:14.150Z,17.37
2019-05-20T13:35:43.702Z,17.42
2019-05-20T13:38:14.321Z,17.92
2019-05-20T13:40:47.068Z,16.77
2019-05-20T13:43:16.546Z,18.35
2019-05-20T13:45:48.274Z,18.25
2019-05-20T13:48:17.958Z,19.02
2019-05-20T13:50:47.620Z,18.75
2019-05-20T13:53:17.244Z,19.02
2019-05-20T13:55:46.765Z,18.77
2019-05-20T13:58:16.306Z,19.00
2019-05-20T14:00:45.962Z,18.17
2019-05-20T14:03:15.611Z,18.62
2019-05-20T14:05:45.163Z,19.25
2019-05-20T14:08:14.749Z,18.48
2019-05-20T14:10:44.379Z,18.52
2019-05-20T14:13:14.070Z,17.42
2019-05-20T14:15:43.684Z,17.87
2019-05-20T14:18:13.127Z,13.13
2019-05-20T14:20:42.910Z,10.70
2019-05-20T14:23:12.499Z,10.03
2019-05-20T14:25:42.044Z,10.55
2019-05-20T14:28:11.551Z,9.88
2019-05-20T14:30:42.432Z,9.30
2019-05-20T14:33:11.944Z,8.90
2019-05-20T14:35:41.547Z,8.95
2019-05-20T14:38:11.222Z,9.10
2019-05-20T14:40:40.768Z,8.48
2019-05-20T14:43:10.457Z,9.98
2019-05-20T14:45:40.154Z,9.00
2019-05-20T14:48:10.724Z,9.13
2019-05-20T14:50:41.143Z,9.03
2019-05-20T14:53:10.820Z,8.45
2019-05-20T14:55:42.497Z,8.73
2019-05-20T14:58:11.584Z,8.23
2019-05-20T15:00:41.227Z,7.58
2019-05-20T15:03:10.694Z,7.90
2019-05-20T15:05:40.531Z,7.22
2019-05-20T15:08:10.889Z,7.95
2019-05-20T15:10:40.487Z,8.68
2019-05-20T15:13:10.108Z,8.35
2019-05-20T15:15:41.290Z,8.08
2019-05-20T15:18:10.808Z,7.05
2019-05-20T15:20:40.372Z,6.50
2019-05-20T15:23:09.911Z,5.05
2019-05-20T15:25:39.448Z,4.90
2019-05-20T15:28:09.060Z,3.60
2019-05-20T15:30:38.666Z,3.47
2019-05-20T15:33:09.300Z,3.58
2019-05-20T15:35:38.852Z,4.00
2019-05-20T15:38:08.362Z,3.65
2019-05-20T15:40:38.779Z,3.45
2019-05-20T15:43:08.394Z,3.98
2019-05-20T15:45:40.863Z,3.80
2019-05-20T15:48:10.347Z,4.17
2019-05-20T15:50:39.880Z,4.00
2019-05-20T15:53:11.716Z,4.00
2019-05-20T15:55:40.695Z,4.37
2019-05-20T15:58:13.438Z,4.67
2019-05-20T16:00:43.927Z,5.20
2019-05-20T16:03:13.440Z,5.40
2019-05-20T16:05:43.039Z,5.97
2019-05-20T16:08:12.580Z,5.58
2019-05-20T16:10:43.147Z,6.60
2019-05-20T16:13:12.683Z,6.40
2019-05-20T16:15:42.259Z,5.95
2019-05-20T16:18:12.235Z,8.25
2019-05-20T16:20:41.859Z,7.92
2019-05-20T16:23:12.263Z,8.50
2019-05-20T16:25:41.890Z,8.20
2019-05-20T16:28:11.536Z,8.60
2019-05-20T16:30:41.323Z,8.83
2019-05-20T16:33:10.981Z,10.25
2019-05-20T16:35:40.664Z,9.20
2019-05-20T16:38:10.248Z,8.75
2019-05-20T16:40:39.923Z,9.38
2019-05-20T16:43:09.539Z,10.08
2019-05-20T16:45:40.723Z,9.70
2019-05-20T16:48:11.795Z,10.53
2019-05-20T16:50:41.302Z,10.00
2019-05-20T16:53:12.007Z,10.32
2019-05-20T16:55:41.664Z,9.30
2019-05-20T16:58:11.239Z,12.30
2019-05-20T17:00:41.476Z,20.75
2019-05-20T17:03:11.080Z,11.50
2019-05-20T17:05:40.754Z,10.23
2019-05-20T17:08:10.436Z,9.15
2019-05-20T17:10:40.060Z,8.95
2019-05-20T17:13:09.731Z,9.13
2019-05-20T17:15:41.967Z,10.13
2019-05-20T17:18:11.504Z,11.18
2019-05-20T17:20:45.620Z,11.57
2019-05-20T17:23:12.523Z,11.40
2019-05-20T17:25:42.284Z,11.65
2019-05-20T17:28:11.831Z,14.78
2019-05-20T17:30:45.367Z,13.05
2019-05-20T17:33:13.412Z,11.75
2019-05-20T17:35:43.050Z,13.50
2019-05-20T17:38:12.735Z,15.28
2019-05-20T17:40:43.495Z,12.47
2019-05-20T17:43:13.043Z,10.78
2019-05-20T17:45:43.742Z,10.93
2019-05-20T17:48:13.465Z,11.65
2019-05-20T17:50:44.643Z,11.50
2019-05-20T17:53:14.264Z,10.35
2019-05-20T17:55:43.848Z,11.18
2019-05-20T17:58:13.467Z,11.08
2019-05-20T18:00:43.222Z,11.20
2019-05-20T18:03:12.789Z,10.55
2019-05-20T18:05:42.327Z,11.50
2019-05-20T18:08:11.771Z,9.95
2019-05-20T18:10:41.259Z,10.10
2019-05-20T18:13:10.808Z,183.68
2019-05-20T18:15:41.122Z,64.70
2019-05-20T18:18:10.643Z,13.68
2019-05-20T18:20:40.260Z,10.93
2019-05-20T18:23:09.804Z,15.20
2019-05-20T18:25:39.275Z,25.82
2019-05-20T18:28:08.830Z,8.35
2019-05-20T18:30:38.512Z,18.75
2019-05-20T18:33:08.024Z,7.92
2019-05-20T18:35:37.555Z,7.00
2019-05-20T18:38:07.237Z,7.00
2019-05-20T18:40:36.736Z,7.50
2019-05-20T18:43:09.864Z,6.65
2019-05-20T18:45:40.009Z,6.20
2019-05-20T18:48:09.555Z,6.40
2019-05-20T18:50:39.223Z,18.62
2019-05-20T18:53:08.702Z,7.65
2019-05-20T18:55:38.275Z,6.85
2019-05-20T18:58:08.903Z,21.48
2019-05-20T19:00:39.252Z,5.10
2019-05-20T19:03:08.860Z,4.55
2019-05-20T19:05:38.466Z,5.22
2019-05-20T19:08:08.041Z,4.50
2019-05-20T19:10:37.737Z,4.47
2019-05-20T19:13:07.512Z,4.97
2019-05-20T19:15:38.233Z,4.80
2019-05-20T19:18:08.941Z,3.42
2019-05-20T19:20:38.616Z,4.70
2019-05-20T19:23:08.219Z,4.80
2019-05-20T19:25:38.231Z,4.20
2019-05-20T19:28:07.855Z,3.50
2019-05-20T19:30:37.609Z,5.80
2019-05-20T19:33:07.527Z,7.10
2019-05-20T19:35:37.244Z,6.08
2019-05-20T19:38:06.982Z,5.05
2019-05-20T19:40:37.006Z,11.70
2019-05-20T19:43:06.838Z,4.40
2019-05-20T19:45:38.767Z,4.17
2019-05-20T19:48:08.409Z,4.75
2019-05-20T19:50:37.947Z,14.65
2019-05-20T19:53:07.673Z,5.20
2019-05-20T19:55:37.102Z,4.33
2019-05-20T19:58:06.719Z,4.00
2019-05-20T20:00:36.730Z,3.98
2019-05-20T20:03:06.532Z,3.67
2019-05-20T20:05:36.228Z,4.67
2019-05-20T20:08:05.891Z,4.70
2019-05-20T20:10:35.710Z,4.53
2019-05-20T20:13:05.358Z,4.33
2019-05-20T20:15:37.603Z,4.10
2019-05-20T20:18:07.218Z,4.58
2019-05-20T20:20:36.878Z,5.28
2019-05-20T20:23:06.507Z,3.87
2019-05-20T20:25:36.210Z,3.90
2019-05-20T20:28:05.879Z,4.10
2019-05-20T20:30:36.387Z,4.35
2019-05-20T20:33:06.006Z,4.37
2019-05-20T20:35:38.130Z,4.50
2019-05-20T20:38:06.780Z,4.92
2019-05-20T20:40:36.458Z,5.95
2019-05-20T20:43:06.130Z,4.72
2019-05-20T20:45:36.508Z,5.00
2019-05-20T20:48:06.053Z,5.03
2019-05-20T20:50:35.696Z,5.00
2019-05-20T20:53:05.192Z,5.37
2019-05-20T20:55:35.901Z,5.08
2019-05-20T20:58:05.534Z,4.80
2019-05-20T21:00:35.380Z,5.00
2019-05-20T21:03:05.691Z,4.75
2019-05-20T21:05:35.229Z,5.42
2019-05-20T21:08:04.947Z,4.90
2019-05-20T21:10:34.489Z,5.37
2019-05-20T21:13:04.140Z,4.92
2019-05-20T21:15:35.838Z,5.65
2019-05-20T21:18:06.107Z,7.22
2019-05-20T21:20:35.822Z,7.62
2019-05-20T21:23:05.466Z,8.18
2019-05-20T21:25:35.078Z,9.88
2019-05-20T21:28:04.687Z,9.53
2019-05-20T21:30:34.916Z,9.93
2019-05-20T21:33:09.323Z,9.93
2019-05-20T21:35:35.738Z,9.20
2019-05-20T21:38:05.350Z,8.65
2019-05-20T21:40:34.863Z,9.30
2019-05-20T21:43:04.424Z,10.08
2019-05-20T21:45:34.398Z,10.53
2019-05-20T21:48:04.336Z,9.58
2019-05-20T21:50:33.832Z,9.73
2019-05-20T21:53:03.314Z,11.35
2019-05-20T21:55:32.935Z,11.03
2019-05-20T21:58:02.547Z,11.18
2019-05-20T22:00:42.419Z,11.70
2019-05-20T22:03:24.118Z,10.53
2019-05-20T22:05:43.900Z,11.73
2019-05-20T22:08:13.486Z,11.45
2019-05-20T22:10:43.176Z,11.00
2019-05-20T22:13:12.719Z,12.18
2019-05-20T22:15:43.198Z,11.03
2019-05-20T22:18:12.671Z,11.48
2019-05-20T22:20:42.374Z,12.40
2019-05-20T22:23:16.297Z,11.85
2019-05-20T22:25:47.558Z,11.80
2019-05-20T22:28:17.075Z,12.10
2019-05-20T22:30:46.691Z,11.73
2019-05-20T22:33:16.212Z,11.38
2019-05-20T22:35:45.920Z,11.90
2019-05-20T22:38:15.500Z,11.68
2019-05-20T22:40:45.223Z,11.12
2019-05-20T22:43:14.767Z,11.03
2019-05-20T22:45:44.287Z,11.50
2019-05-20T22:48:13.833Z,10.82
2019-05-20T22:50:43.307Z,10.90
2019-05-20T22:53:12.846Z,10.93
2019-05-20T22:55:42.363Z,10.68
2019-05-20T22:58:11.848Z,10.25
2019-05-20T23:00:41.532Z,11.22
2019-05-20T23:03:11.014Z,10.78
2019-05-20T23:05:40.595Z,10.65
2019-05-20T23:08:10.212Z,10.43
2019-05-20T23:10:39.824Z,10.45
2019-05-20T23:13:09.440Z,10.40
2019-05-20T23:15:39.075Z,10.75
2019-05-20T23:18:08.587Z,11.35
2019-05-20T23:20:38.199Z,10.95
2019-05-20T23:23:07.750Z,10.43
2019-05-20T23:25:37.331Z,10.32
2019-05-20T23:28:06.807Z,10.70
2019-05-20T23:30:37.719Z,10.70
2019-05-20T23:33:07.334Z,12.20
2019-05-20T23:35:36.839Z,11.00
2019-05-20T23:38:06.396Z,11.15
2019-05-20T23:40:36.910Z,10.88
2019-05-20T23:43:06.945Z,11.10
2019-05-20T23:45:36.455Z,11.33
2019-05-20T23:48:06.083Z,10.70
2019-05-20T23:50:35.591Z,10.78
2019-05-20T23:53:05.140Z,10.88
2019-05-20T23:55:34.752Z,11.15
2019-05-20T23:58:04.304Z,11.48
